sensor_id;sensor_type;location;lat;lon;timestamp;temperature;humidity
11609;DHT22;5860;52.018;8.536;2023-11-22T00:01:21;3.30;99.90
11609;DHT22;5860;52.018;8.536;2023-11-22T00:03:48;3.30;99.90
11609;DHT22;5860;52.018;8.536;2023-11-22T00:06:17;3.30;99.90
11609;DHT22;5860;52.018;8.536;2023-11-22T00:08:51;3.30;99.90
11609;DHT22;5860;52.018;8.536;2023-11-22T00:11:18;3.30;99.90
11609;DHT22;5860;52.018;8.536;2023-11-22T00:13:46;3.30;99.90
11609;DHT22;5860;52.018;8.536;2023-11-22T00:16:15;3.30;99.90
11609;DHT22;5860;52.018;8.536;2023-11-22T00:18:43;3.30;99.90
11609;DHT22;5860;52.018;8.536;2023-11-22T00:21:11;3.30;99.90
11609;DHT22;5860;52.018;8.536;2023-11-22T00:23:38;3.30;99.90
11609;DHT22;5860;52.018;8.536;2023-11-22T00:26:05;3.20;99.90
11609;DHT22;5860;52.018;8.536;2023-11-22T00:28:38;3.20;99.90
11609;DHT22;5860;52.018;8.536;2023-11-22T00:31:06;3.20;99.90
11609;DHT22;5860;52.018;8.536;2023-11-22T00:33:33;3.10;99.90
11609;DHT22;5860;52.018;8.536;2023-11-22T00:36:01;3.10;99.90
11609;DHT22;5860;52.018;8.536;2023-11-22T00:38:31;3.00;99.90
11609;DHT22;5860;52.018;8.536;2023-11-22T00:40:59;3.00;99.90
11609;DHT22;5860;52.018;8.536;2023-11-22T00:43:26;3.00;99.90
11609;DHT22;5860;52.018;8.536;2023-11-22T00:45:54;2.90;99.90
11609;DHT22;5860;52.018;8.536;2023-11-22T00:48:21;2.80;99.90
11609;DHT22;5860;52.018;8.536;2023-11-22T00:50:48;2.80;99.90
11609;DHT22;5860;52.018;8.536;2023-11-22T00:53:15;2.90;99.90
11609;DHT22;5860;52.018;8.536;2023-11-22T00:55:44;3.00;99.90
11609;DHT22;5860;52.018;8.536;2023-11-22T00:58:11;3.00;99.90
11609;DHT22;5860;52.018;8.536;2023-11-22T01:00:38;3.10;99.90
11609;DHT22;5860;52.018;8.536;2023-11-22T01:03:05;3.10;99.90
11609;DHT22;5860;52.018;8.536;2023-11-22T01:05:32;3.00;99.90
11609;DHT22;5860;52.018;8.536;2023-11-22T01:08:01;3.00;99.90
11609;DHT22;5860;52.018;8.536;2023-11-22T01:10:28;3.00;99.90
11609;DHT22;5860;52.018;8.536;2023-11-22T01:12:56;2.90;99.90
11609;DHT22;5860;52.018;8.536;2023-11-22T01:15:23;2.80;99.90
11609;DHT22;5860;52.018;8.536;2023-11-22T01:17:53;2.90;99.90
11609;DHT22;5860;52.018;8.536;2023-11-22T01:20:20;2.80;99.90
11609;DHT22;5860;52.018;8.536;2023-11-22T01:22:50;2.70;99.90
11609;DHT22;5860;52.018;8.536;2023-11-22T01:25:17;2.70;99.90
11609;DHT22;5860;52.018;8.536;2023-11-22T01:27:44;2.70;99.90
11609;DHT22;5860;52.018;8.536;2023-11-22T01:30:11;2.60;99.90
11609;DHT22;5860;52.018;8.536;2023-11-22T01:32:38;2.60;99.90
11609;DHT22;5860;52.018;8.536;2023-11-22T01:35:06;2.60;99.90
11609;DHT22;5860;52.018;8.536;2023-11-22T01:37:33;2.50;99.90
11609;DHT22;5860;52.018;8.536;2023-11-22T01:40:00;2.50;99.90
11609;DHT22;5860;52.018;8.536;2023-11-22T01:42:29;2.30;99.90
11609;DHT22;5860;52.018;8.536;2023-11-22T01:44:56;2.30;99.90
11609;DHT22;5860;52.018;8.536;2023-11-22T01:47:23;2.20;99.90
11609;DHT22;5860;52.018;8.536;2023-11-22T01:49:51;2.30;99.90
11609;DHT22;5860;52.018;8.536;2023-11-22T01:52:18;2.20;99.90
11609;DHT22;5860;52.018;8.536;2023-11-22T01:54:45;2.20;99.90
11609;DHT22;5860;52.018;8.536;2023-11-22T01:57:12;2.10;99.90
11609;DHT22;5860;52.018;8.536;2023-11-22T01:59:42;2.00;99.90
11609;DHT22;5860;52.018;8.536;2023-11-22T02:02:10;2.00;99.90
11609;DHT22;5860;52.018;8.536;2023-11-22T02:04:37;1.90;99.90
11609;DHT22;5860;52.018;8.536;2023-11-22T02:07:04;1.90;99.90
11609;DHT22;5860;52.018;8.536;2023-11-22T02:09:31;1.80;99.90
11609;DHT22;5860;52.018;8.536;2023-11-22T02:11:59;1.90;99.90
11609;DHT22;5860;52.018;8.536;2023-11-22T02:14:27;1.70;99.90
11609;DHT22;5860;52.018;8.536;2023-11-22T02:16:55;1.80;99.90
11609;DHT22;5860;52.018;8.536;2023-11-22T02:19:23;1.80;99.90
11609;DHT22;5860;52.018;8.536;2023-11-22T02:21:52;1.90;99.90
11609;DHT22;5860;52.018;8.536;2023-11-22T02:24:19;1.90;99.90
11609;DHT22;5860;52.018;8.536;2023-11-22T02:26:47;2.00;99.90
11609;DHT22;5860;52.018;8.536;2023-11-22T02:29:14;2.00;99.90
11609;DHT22;5860;52.018;8.536;2023-11-22T02:31:42;2.00;99.90
11609;DHT22;5860;52.018;8.536;2023-11-22T02:34:10;1.90;99.90
11609;DHT22;5860;52.018;8.536;2023-11-22T02:36:37;1.90;99.90
11609;DHT22;5860;52.018;8.536;2023-11-22T02:39:32;2.00;99.90
11609;DHT22;5860;52.018;8.536;2023-11-22T02:42:04;1.90;99.90
11609;DHT22;5860;52.018;8.536;2023-11-22T02:44:31;1.80;99.90
11609;DHT22;5860;52.018;8.536;2023-11-22T02:46:58;1.80;99.90
11609;DHT22;5860;52.018;8.536;2023-11-22T02:49:26;1.70;99.90
11609;DHT22;5860;52.018;8.536;2023-11-22T02:51:53;1.80;99.90
11609;DHT22;5860;52.018;8.536;2023-11-22T02:54:20;1.90;99.90
11609;DHT22;5860;52.018;8.536;2023-11-22T02:56:47;1.90;99.90
11609;DHT22;5860;52.018;8.536;2023-11-22T03:05:35;1.80;99.90
11609;DHT22;5860;52.018;8.536;2023-11-22T03:08:04;1.80;99.90
11609;DHT22;5860;52.018;8.536;2023-11-22T03:10:34;1.70;99.90
11609;DHT22;5860;52.018;8.536;2023-11-22T03:13:02;1.80;99.90
11609;DHT22;5860;52.018;8.536;2023-11-22T03:15:31;1.80;99.90
11609;DHT22;5860;52.018;8.536;2023-11-22T03:17:58;1.80;99.90
11609;DHT22;5860;52.018;8.536;2023-11-22T03:20:26;1.80;99.90
11609;DHT22;5860;52.018;8.536;2023-11-22T03:22:53;1.70;99.90
11609;DHT22;5860;52.018;8.536;2023-11-22T03:25:20;1.70;99.90
11609;DHT22;5860;52.018;8.536;2023-11-22T03:27:47;1.80;99.90
11609;DHT22;5860;52.018;8.536;2023-11-22T03:30:18;1.80;99.90
11609;DHT22;5860;52.018;8.536;2023-11-22T03:32:46;1.80;99.90
11609;DHT22;5860;52.018;8.536;2023-11-22T03:35:15;1.70;99.90
11609;DHT22;5860;52.018;8.536;2023-11-22T03:37:43;1.60;99.90
11609;DHT22;5860;52.018;8.536;2023-11-22T03:40:11;1.70;99.90
11609;DHT22;5860;52.018;8.536;2023-11-22T03:42:41;1.70;99.90
11609;DHT22;5860;52.018;8.536;2023-11-22T03:45:08;1.70;99.90
11609;DHT22;5860;52.018;8.536;2023-11-22T03:47:36;1.70;99.90
11609;DHT22;5860;52.018;8.536;2023-11-22T03:50:06;1.70;99.90
11609;DHT22;5860;52.018;8.536;2023-11-22T03:52:33;1.60;99.90
11609;DHT22;5860;52.018;8.536;2023-11-22T03:55:00;1.60;99.90
11609;DHT22;5860;52.018;8.536;2023-11-22T03:57:27;1.60;99.90
11609;DHT22;5860;52.018;8.536;2023-11-22T03:59:57;1.50;99.90
11609;DHT22;5860;52.018;8.536;2023-11-22T04:02:24;1.50;99.90
11609;DHT22;5860;52.018;8.536;2023-11-22T04:04:51;1.50;99.90
11609;DHT22;5860;52.018;8.536;2023-11-22T04:07:18;1.40;99.90
11609;DHT22;5860;52.018;8.536;2023-11-22T04:09:45;1.40;99.90
11609;DHT22;5860;52.018;8.536;2023-11-22T04:12:12;1.30;99.90
11609;DHT22;5860;52.018;8.536;2023-11-22T04:14:39;1.30;99.90
11609;DHT22;5860;52.018;8.536;2023-11-22T04:17:07;1.30;99.90
11609;DHT22;5860;52.018;8.536;2023-11-22T04:19:35;1.40;99.90
11609;DHT22;5860;52.018;8.536;2023-11-22T04:22:03;1.40;99.90
11609;DHT22;5860;52.018;8.536;2023-11-22T04:24:39;1.40;99.90
11609;DHT22;5860;52.018;8.536;2023-11-22T04:27:06;1.20;99.90
11609;DHT22;5860;52.018;8.536;2023-11-22T04:29:35;1.40;99.90
11609;DHT22;5860;52.018;8.536;2023-11-22T04:32:03;1.30;99.90
11609;DHT22;5860;52.018;8.536;2023-11-22T04:34:30;1.40;99.90
11609;DHT22;5860;52.018;8.536;2023-11-22T04:36:57;1.50;99.90
11609;DHT22;5860;52.018;8.536;2023-11-22T04:39:24;1.50;99.90
11609;DHT22;5860;52.018;8.536;2023-11-22T04:41:51;1.40;99.90
11609;DHT22;5860;52.018;8.536;2023-11-22T04:44:18;1.40;99.90
11609;DHT22;5860;52.018;8.536;2023-11-22T04:46:48;1.40;99.90
11609;DHT22;5860;52.018;8.536;2023-11-22T04:49:15;1.40;99.90
11609;DHT22;5860;52.018;8.536;2023-11-22T04:51:42;1.40;99.90
11609;DHT22;5860;52.018;8.536;2023-11-22T04:54:11;1.50;99.90
11609;DHT22;5860;52.018;8.536;2023-11-22T04:56:38;1.50;99.90
11609;DHT22;5860;52.018;8.536;2023-11-22T04:59:05;1.40;99.90
11609;DHT22;5860;52.018;8.536;2023-11-22T05:01:32;1.40;99.90
11609;DHT22;5860;52.018;8.536;2023-11-22T05:04:00;1.40;99.90
11609;DHT22;5860;52.018;8.536;2023-11-22T05:06:27;1.30;99.90
11609;DHT22;5860;52.018;8.536;2023-11-22T05:08:56;1.30;99.90
11609;DHT22;5860;52.018;8.536;2023-11-22T05:11:23;1.40;99.90
11609;DHT22;5860;52.018;8.536;2023-11-22T05:13:50;1.40;99.90
11609;DHT22;5860;52.018;8.536;2023-11-22T05:16:17;1.40;99.90
11609;DHT22;5860;52.018;8.536;2023-11-22T05:18:45;1.40;99.90
11609;DHT22;5860;52.018;8.536;2023-11-22T05:21:12;1.40;99.90
11609;DHT22;5860;52.018;8.536;2023-11-22T05:23:39;1.30;99.90
11609;DHT22;5860;52.018;8.536;2023-11-22T05:26:09;1.20;99.90
11609;DHT22;5860;52.018;8.536;2023-11-22T05:28:36;1.30;99.90
11609;DHT22;5860;52.018;8.536;2023-11-22T05:31:03;1.30;99.90
11609;DHT22;5860;52.018;8.536;2023-11-22T05:33:30;1.30;99.90
11609;DHT22;5860;52.018;8.536;2023-11-22T05:35:59;1.30;99.90
11609;DHT22;5860;52.018;8.536;2023-11-22T05:38:26;1.30;99.90
11609;DHT22;5860;52.018;8.536;2023-11-22T05:40:54;1.30;99.90
11609;DHT22;5860;52.018;8.536;2023-11-22T05:43:21;1.30;99.90
11609;DHT22;5860;52.018;8.536;2023-11-22T05:45:54;1.30;99.90
11609;DHT22;5860;52.018;8.536;2023-11-22T05:48:21;1.20;99.90
11609;DHT22;5860;52.018;8.536;2023-11-22T05:50:48;1.20;99.90
11609;DHT22;5860;52.018;8.536;2023-11-22T05:53:16;1.20;99.90
11609;DHT22;5860;52.018;8.536;2023-11-22T05:55:46;1.10;99.90
11609;DHT22;5860;52.018;8.536;2023-11-22T05:58:17;1.20;99.90
11609;DHT22;5860;52.018;8.536;2023-11-22T06:00:47;1.20;99.90
11609;DHT22;5860;52.018;8.536;2023-11-22T06:03:14;1.20;99.90
11609;DHT22;5860;52.018;8.536;2023-11-22T06:05:41;1.20;99.90
11609;DHT22;5860;52.018;8.536;2023-11-22T06:08:08;1.50;99.90
11609;DHT22;5860;52.018;8.536;2023-11-22T06:10:38;1.20;99.90
11609;DHT22;5860;52.018;8.536;2023-11-22T06:13:08;1.20;99.90
11609;DHT22;5860;52.018;8.536;2023-11-22T06:15:35;1.20;99.90
11609;DHT22;5860;52.018;8.536;2023-11-22T06:18:02;1.30;99.90
11609;DHT22;5860;52.018;8.536;2023-11-22T06:20:29;1.30;99.90
11609;DHT22;5860;52.018;8.536;2023-11-22T06:22:56;1.20;99.90
11609;DHT22;5860;52.018;8.536;2023-11-22T06:25:23;1.20;99.90
11609;DHT22;5860;52.018;8.536;2023-11-22T06:27:50;1.10;99.90
11609;DHT22;5860;52.018;8.536;2023-11-22T06:30:17;1.10;99.90
11609;DHT22;5860;52.018;8.536;2023-11-22T06:32:44;1.20;99.90
11609;DHT22;5860;52.018;8.536;2023-11-22T06:35:11;1.10;99.90
11609;DHT22;5860;52.018;8.536;2023-11-22T06:37:41;1.10;99.90
11609;DHT22;5860;52.018;8.536;2023-11-22T06:40:09;1.70;99.90
11609;DHT22;5860;52.018;8.536;2023-11-22T06:42:36;1.00;99.90
11609;DHT22;5860;52.018;8.536;2023-11-22T06:45:05;1.00;99.90
11609;DHT22;5860;52.018;8.536;2023-11-22T06:47:33;1.00;99.90
11609;DHT22;5860;52.018;8.536;2023-11-22T06:50:00;1.00;99.90
11609;DHT22;5860;52.018;8.536;2023-11-22T06:52:27;1.00;99.90
11609;DHT22;5860;52.018;8.536;2023-11-22T06:54:54;1.30;99.90
11609;DHT22;5860;52.018;8.536;2023-11-22T06:57:21;1.00;99.90
11609;DHT22;5860;52.018;8.536;2023-11-22T06:59:58;1.10;99.90
11609;DHT22;5860;52.018;8.536;2023-11-22T07:02:25;1.10;99.90
11609;DHT22;5860;52.018;8.536;2023-11-22T07:04:52;1.00;99.90
11609;DHT22;5860;52.018;8.536;2023-11-22T07:07:20;1.10;99.90
11609;DHT22;5860;52.018;8.536;2023-11-22T07:09:46;1.30;99.90
11609;DHT22;5860;52.018;8.536;2023-11-22T07:12:14;1.10;99.90
11609;DHT22;5860;52.018;8.536;2023-11-22T07:14:42;1.10;99.90
11609;DHT22;5860;52.018;8.536;2023-11-22T07:17:10;1.20;99.90
11609;DHT22;5860;52.018;8.536;2023-11-22T07:19:37;1.30;99.90
11609;DHT22;5860;52.018;8.536;2023-11-22T07:22:05;1.30;99.90
11609;DHT22;5860;52.018;8.536;2023-11-22T07:24:44;2.00;99.90
11609;DHT22;5860;52.018;8.536;2023-11-22T07:27:14;1.40;99.90
11609;DHT22;5860;52.018;8.536;2023-11-22T07:29:41;1.50;99.90
11609;DHT22;5860;52.018;8.536;2023-11-22T07:32:09;2.60;99.90
11609;DHT22;5860;52.018;8.536;2023-11-22T07:34:37;1.50;99.90
11609;DHT22;5860;52.018;8.536;2023-11-22T07:37:04;1.60;99.90
11609;DHT22;5860;52.018;8.536;2023-11-22T07:39:31;1.70;99.90
11609;DHT22;5860;52.018;8.536;2023-11-22T07:41:58;1.70;99.90
11609;DHT22;5860;52.018;8.536;2023-11-22T07:44:25;1.80;99.90
11609;DHT22;5860;52.018;8.536;2023-11-22T07:46:52;1.80;99.90
11609;DHT22;5860;52.018;8.536;2023-11-22T07:49:19;2.90;99.90
11609;DHT22;5860;52.018;8.536;2023-11-22T07:51:46;1.80;99.90
11609;DHT22;5860;52.018;8.536;2023-11-22T07:54:14;1.90;99.90
11609;DHT22;5860;52.018;8.536;2023-11-22T07:56:44;2.10;99.90
11609;DHT22;5860;52.018;8.536;2023-11-22T07:59:11;2.00;99.90
11609;DHT22;5860;52.018;8.536;2023-11-22T08:01:38;2.00;99.90
11609;DHT22;5860;52.018;8.536;2023-11-22T08:04:05;1.90;99.90
11609;DHT22;5860;52.018;8.536;2023-11-22T08:06:32;1.90;99.90
11609;DHT22;5860;52.018;8.536;2023-11-22T08:08:59;1.90;99.90
11609;DHT22;5860;52.018;8.536;2023-11-22T08:11:31;2.00;99.90
11609;DHT22;5860;52.018;8.536;2023-11-22T08:13:58;2.20;99.90
11609;DHT22;5860;52.018;8.536;2023-11-22T08:16:26;1.90;99.90
11609;DHT22;5860;52.018;8.536;2023-11-22T08:18:54;2.00;99.90
11609;DHT22;5860;52.018;8.536;2023-11-22T08:21:21;2.00;99.90
11609;DHT22;5860;52.018;8.536;2023-11-22T08:23:48;2.00;99.90
11609;DHT22;5860;52.018;8.536;2023-11-22T08:26:16;2.20;99.90
11609;DHT22;5860;52.018;8.536;2023-11-22T08:28:43;2.40;99.90
11609;DHT22;5860;52.018;8.536;2023-11-22T08:31:09;2.30;99.90
11609;DHT22;5860;52.018;8.536;2023-11-22T08:33:38;2.40;99.90
11609;DHT22;5860;52.018;8.536;2023-11-22T08:36:07;2.50;99.90
11609;DHT22;5860;52.018;8.536;2023-11-22T08:38:35;2.40;65.00
11609;DHT22;5860;52.018;8.536;2023-11-22T08:41:07;2.40;1.00
11609;DHT22;5860;52.018;8.536;2023-11-22T08:43:34;2.50;1.00
11609;DHT22;5860;52.018;8.536;2023-11-22T08:46:01;2.60;1.00
11609;DHT22;5860;52.018;8.536;2023-11-22T08:48:40;2.70;1.00
11609;DHT22;5860;52.018;8.536;2023-11-22T08:51:09;2.70;1.00
11609;DHT22;5860;52.018;8.536;2023-11-22T08:53:37;2.80;1.00
11609;DHT22;5860;52.018;8.536;2023-11-22T08:56:05;2.80;1.00
11609;DHT22;5860;52.018;8.536;2023-11-22T08:58:35;2.80;1.00
11609;DHT22;5860;52.018;8.536;2023-11-22T09:01:02;2.90;1.00
11609;DHT22;5860;52.018;8.536;2023-11-22T09:03:31;2.90;1.00
11609;DHT22;5860;52.018;8.536;2023-11-22T09:05:59;3.00;99.90
11609;DHT22;5860;52.018;8.536;2023-11-22T09:08:27;2.90;99.90
11609;DHT22;5860;52.018;8.536;2023-11-22T09:10:57;2.90;99.90
11609;DHT22;5860;52.018;8.536;2023-11-22T09:13:24;2.90;1.00
11609;DHT22;5860;52.018;8.536;2023-11-22T09:15:52;3.00;1.00
11609;DHT22;5860;52.018;8.536;2023-11-22T09:18:19;3.10;99.90
11609;DHT22;5860;52.018;8.536;2023-11-22T09:20:46;3.00;1.00
11609;DHT22;5860;52.018;8.536;2023-11-22T09:23:13;2.90;1.00
11609;DHT22;5860;52.018;8.536;2023-11-22T09:25:41;3.10;99.90
11609;DHT22;5860;52.018;8.536;2023-11-22T09:28:08;3.00;1.00
11609;DHT22;5860;52.018;8.536;2023-11-22T09:30:36;3.10;99.90
11609;DHT22;5860;52.018;8.536;2023-11-22T09:33:10;3.10;99.90
11609;DHT22;5860;52.018;8.536;2023-11-22T09:35:38;3.10;99.90
11609;DHT22;5860;52.018;8.536;2023-11-22T09:38:08;3.10;99.90
11609;DHT22;5860;52.018;8.536;2023-11-22T09:40:46;3.30;99.90
11609;DHT22;5860;52.018;8.536;2023-11-22T09:43:14;3.20;15.60
11609;DHT22;5860;52.018;8.536;2023-11-22T09:45:49;3.20;99.90
11609;DHT22;5860;52.018;8.536;2023-11-22T09:48:23;3.30;1.00
11609;DHT22;5860;52.018;8.536;2023-11-22T09:56:12;3.40;99.90
11609;DHT22;5860;52.018;8.536;2023-11-22T09:58:42;3.40;99.90
11609;DHT22;5860;52.018;8.536;2023-11-22T10:01:14;3.60;99.90
11609;DHT22;5860;52.018;8.536;2023-11-22T10:03:42;3.50;10.00
11609;DHT22;5860;52.018;8.536;2023-11-22T10:06:10;3.50;1.00
11609;DHT22;5860;52.018;8.536;2023-11-22T10:08:37;3.50;99.90
11609;DHT22;5860;52.018;8.536;2023-11-22T10:11:05;3.50;69.80
11609;DHT22;5860;52.018;8.536;2023-11-22T10:13:34;3.60;99.90
11609;DHT22;5860;52.018;8.536;2023-11-22T10:16:13;3.70;99.90
11609;DHT22;5860;52.018;8.536;2023-11-22T10:18:43;3.80;99.90
11609;DHT22;5860;52.018;8.536;2023-11-22T10:21:37;3.60;99.90
11609;DHT22;5860;52.018;8.536;2023-11-22T10:24:07;3.80;99.90
11609;DHT22;5860;52.018;8.536;2023-11-22T10:26:36;3.90;14.40
11609;DHT22;5860;52.018;8.536;2023-11-22T10:29:03;3.80;99.90
11609;DHT22;5860;52.018;8.536;2023-11-22T10:31:30;3.90;99.90
11609;DHT22;5860;52.018;8.536;2023-11-22T10:34:03;3.70;99.90
11609;DHT22;5860;52.018;8.536;2023-11-22T10:36:30;3.90;99.90
11609;DHT22;5860;52.018;8.536;2023-11-22T10:38:57;4.00;99.90
11609;DHT22;5860;52.018;8.536;2023-11-22T10:41:25;4.10;99.90
11609;DHT22;5860;52.018;8.536;2023-11-22T10:43:53;4.10;99.90
11609;DHT22;5860;52.018;8.536;2023-11-22T10:46:28;4.20;1.00
11609;DHT22;5860;52.018;8.536;2023-11-22T10:48:57;4.00;1.00
11609;DHT22;5860;52.018;8.536;2023-11-22T10:51:30;3.90;1.00
11609;DHT22;5860;52.018;8.536;2023-11-22T10:53:58;3.80;1.00
11609;DHT22;5860;52.018;8.536;2023-11-22T10:56:28;3.90;1.00
11609;DHT22;5860;52.018;8.536;2023-11-22T10:59:02;4.00;1.00
11609;DHT22;5860;52.018;8.536;2023-11-22T11:01:33;4.10;1.00
11609;DHT22;5860;52.018;8.536;2023-11-22T11:04:09;4.10;1.00
11609;DHT22;5860;52.018;8.536;2023-11-22T11:06:39;4.10;1.00
11609;DHT22;5860;52.018;8.536;2023-11-22T11:09:07;4.10;1.00
11609;DHT22;5860;52.018;8.536;2023-11-22T11:11:38;4.10;1.00
11609;DHT22;5860;52.018;8.536;2023-11-22T11:14:09;4.10;1.00
11609;DHT22;5860;52.018;8.536;2023-11-22T11:16:39;4.20;1.00
11609;DHT22;5860;52.018;8.536;2023-11-22T11:19:09;4.10;99.90
11609;DHT22;5860;52.018;8.536;2023-11-22T11:21:37;3.80;1.00
11609;DHT22;5860;52.018;8.536;2023-11-22T11:24:06;3.90;1.00
11609;DHT22;5860;52.018;8.536;2023-11-22T11:26:34;3.90;1.00
11609;DHT22;5860;52.018;8.536;2023-11-22T11:29:04;3.80;99.90
11609;DHT22;5860;52.018;8.536;2023-11-22T11:31:34;3.80;99.90
11609;DHT22;5860;52.018;8.536;2023-11-22T11:34:07;3.90;99.90
11609;DHT22;5860;52.018;8.536;2023-11-22T11:36:37;3.90;99.90
11609;DHT22;5860;52.018;8.536;2023-11-22T11:39:06;3.70;99.90
11609;DHT22;5860;52.018;8.536;2023-11-22T11:41:41;3.60;99.90
11609;DHT22;5860;52.018;8.536;2023-11-22T11:44:09;3.50;99.90
11609;DHT22;5860;52.018;8.536;2023-11-22T11:46:37;3.80;99.90
11609;DHT22;5860;52.018;8.536;2023-11-22T11:49:11;3.60;99.90
11609;DHT22;5860;52.018;8.536;2023-11-22T11:51:39;3.70;99.90
11609;DHT22;5860;52.018;8.536;2023-11-22T11:54:06;3.70;99.90
11609;DHT22;5860;52.018;8.536;2023-11-22T11:56:36;3.80;99.90
11609;DHT22;5860;52.018;8.536;2023-11-22T11:59:03;3.90;99.90
11609;DHT22;5860;52.018;8.536;2023-11-22T12:01:31;4.00;99.90
11609;DHT22;5860;52.018;8.536;2023-11-22T12:04:01;4.20;1.00
11609;DHT22;5860;52.018;8.536;2023-11-22T12:06:29;4.20;1.00
11609;DHT22;5860;52.018;8.536;2023-11-22T12:08:57;4.40;1.00
11609;DHT22;5860;52.018;8.536;2023-11-22T12:11:25;4.40;1.00
11609;DHT22;5860;52.018;8.536;2023-11-22T12:13:52;4.10;1.00
11609;DHT22;5860;52.018;8.536;2023-11-22T12:16:19;4.10;1.00
11609;DHT22;5860;52.018;8.536;2023-11-22T12:18:48;4.10;1.00
11609;DHT22;5860;52.018;8.536;2023-11-22T12:21:17;4.00;1.00
11609;DHT22;5860;52.018;8.536;2023-11-22T12:23:46;4.00;1.00
11609;DHT22;5860;52.018;8.536;2023-11-22T12:26:17;3.90;1.00
11609;DHT22;5860;52.018;8.536;2023-11-22T12:28:46;4.10;1.00
11609;DHT22;5860;52.018;8.536;2023-11-22T12:31:29;4.50;1.00
11609;DHT22;5860;52.018;8.536;2023-11-22T12:34:03;4.70;1.00
11609;DHT22;5860;52.018;8.536;2023-11-22T12:36:34;4.60;1.00
11609;DHT22;5860;52.018;8.536;2023-11-22T12:39:06;4.60;1.00
11609;DHT22;5860;52.018;8.536;2023-11-22T12:41:34;4.40;1.00
11609;DHT22;5860;52.018;8.536;2023-11-22T12:44:07;4.40;1.00
11609;DHT22;5860;52.018;8.536;2023-11-22T12:46:53;4.50;1.00
11609;DHT22;5860;52.018;8.536;2023-11-22T12:49:29;4.70;1.00
11609;DHT22;5860;52.018;8.536;2023-11-22T12:51:58;4.60;1.00
11609;DHT22;5860;52.018;8.536;2023-11-22T12:54:25;4.60;1.00
11609;DHT22;5860;52.018;8.536;2023-11-22T12:56:53;4.60;1.00
11609;DHT22;5860;52.018;8.536;2023-11-22T12:59:27;4.70;1.00
11609;DHT22;5860;52.018;8.536;2023-11-22T13:01:55;4.90;1.00
11609;DHT22;5860;52.018;8.536;2023-11-22T13:04:23;4.90;1.00
11609;DHT22;5860;52.018;8.536;2023-11-22T13:06:51;4.70;1.00
11609;DHT22;5860;52.018;8.536;2023-11-22T13:09:19;4.70;1.00
11609;DHT22;5860;52.018;8.536;2023-11-22T13:11:46;4.70;1.00
11609;DHT22;5860;52.018;8.536;2023-11-22T13:14:14;4.70;1.00
11609;DHT22;5860;52.018;8.536;2023-11-22T13:16:41;4.70;1.00
11609;DHT22;5860;52.018;8.536;2023-11-22T13:19:09;4.70;1.00
11609;DHT22;5860;52.018;8.536;2023-11-22T13:21:37;4.70;1.00
11609;DHT22;5860;52.018;8.536;2023-11-22T13:24:04;4.70;1.00
11609;DHT22;5860;52.018;8.536;2023-11-22T13:26:33;4.60;1.00
11609;DHT22;5860;52.018;8.536;2023-11-22T13:29:04;4.70;1.00
11609;DHT22;5860;52.018;8.536;2023-11-22T13:31:30;4.70;1.00
11609;DHT22;5860;52.018;8.536;2023-11-22T13:33:58;4.80;1.00
11609;DHT22;5860;52.018;8.536;2023-11-22T13:36:25;4.80;1.00
11609;DHT22;5860;52.018;8.536;2023-11-22T13:38:52;4.70;1.00
11609;DHT22;5860;52.018;8.536;2023-11-22T13:41:22;4.60;1.00
11609;DHT22;5860;52.018;8.536;2023-11-22T13:43:51;4.60;1.00
11609;DHT22;5860;52.018;8.536;2023-11-22T13:46:18;4.60;1.00
11609;DHT22;5860;52.018;8.536;2023-11-22T13:48:45;4.60;1.00
11609;DHT22;5860;52.018;8.536;2023-11-22T13:51:12;4.50;1.00
11609;DHT22;5860;52.018;8.536;2023-11-22T13:53:39;4.50;1.00
11609;DHT22;5860;52.018;8.536;2023-11-22T13:56:11;4.50;1.00
11609;DHT22;5860;52.018;8.536;2023-11-22T13:58:41;4.50;1.00
11609;DHT22;5860;52.018;8.536;2023-11-22T14:01:08;4.50;1.00
11609;DHT22;5860;52.018;8.536;2023-11-22T14:03:40;4.50;1.00
11609;DHT22;5860;52.018;8.536;2023-11-22T14:06:07;4.50;1.00
11609;DHT22;5860;52.018;8.536;2023-11-22T14:08:36;4.50;1.00
11609;DHT22;5860;52.018;8.536;2023-11-22T14:11:03;4.50;1.00
11609;DHT22;5860;52.018;8.536;2023-11-22T14:13:30;4.50;1.00
11609;DHT22;5860;52.018;8.536;2023-11-22T14:15:57;4.40;1.00
11609;DHT22;5860;52.018;8.536;2023-11-22T14:18:24;4.40;1.00
11609;DHT22;5860;52.018;8.536;2023-11-22T14:20:52;4.30;1.00
11609;DHT22;5860;52.018;8.536;2023-11-22T14:23:20;4.30;23.40
11609;DHT22;5860;52.018;8.536;2023-11-22T14:25:47;4.30;46.20
11609;DHT22;5860;52.018;8.536;2023-11-22T14:28:15;4.20;99.90
11609;DHT22;5860;52.018;8.536;2023-11-22T14:30:41;4.20;99.90
11609;DHT22;5860;52.018;8.536;2023-11-22T14:33:09;4.20;99.90
11609;DHT22;5860;52.018;8.536;2023-11-22T14:35:36;4.20;99.90
11609;DHT22;5860;52.018;8.536;2023-11-22T14:38:03;4.10;99.90
11609;DHT22;5860;52.018;8.536;2023-11-22T14:40:33;4.10;99.90
11609;DHT22;5860;52.018;8.536;2023-11-22T14:43:02;4.10;99.90
11609;DHT22;5860;52.018;8.536;2023-11-22T14:45:30;4.00;99.90
11609;DHT22;5860;52.018;8.536;2023-11-22T14:47:58;4.00;99.90
11609;DHT22;5860;52.018;8.536;2023-11-22T14:50:27;4.00;99.90
11609;DHT22;5860;52.018;8.536;2023-11-22T14:52:55;4.00;99.90
11609;DHT22;5860;52.018;8.536;2023-11-22T14:55:23;4.00;99.90
11609;DHT22;5860;52.018;8.536;2023-11-22T14:57:52;4.00;99.90
11609;DHT22;5860;52.018;8.536;2023-11-22T15:00:21;4.00;99.90
11609;DHT22;5860;52.018;8.536;2023-11-22T15:02:48;4.00;99.90
11609;DHT22;5860;52.018;8.536;2023-11-22T15:05:20;4.00;99.90
11609;DHT22;5860;52.018;8.536;2023-11-22T15:07:50;3.90;99.90
11609;DHT22;5860;52.018;8.536;2023-11-22T15:10:22;3.90;99.90
11609;DHT22;5860;52.018;8.536;2023-11-22T15:12:49;4.00;99.90
11609;DHT22;5860;52.018;8.536;2023-11-22T15:15:17;4.00;42.00
11609;DHT22;5860;52.018;8.536;2023-11-22T15:17:45;3.90;11.60
11609;DHT22;5860;52.018;8.536;2023-11-22T15:20:13;3.80;64.10
11609;DHT22;5860;52.018;8.536;2023-11-22T15:22:43;3.90;1.00
11609;DHT22;5860;52.018;8.536;2023-11-22T15:25:11;4.20;1.00
11609;DHT22;5860;52.018;8.536;2023-11-22T15:27:38;3.90;1.00
11609;DHT22;5860;52.018;8.536;2023-11-22T15:30:06;3.90;1.00
11609;DHT22;5860;52.018;8.536;2023-11-22T15:32:35;3.90;1.00
11609;DHT22;5860;52.018;8.536;2023-11-22T15:35:03;3.90;1.00
11609;DHT22;5860;52.018;8.536;2023-11-22T15:37:32;3.90;1.00
11609;DHT22;5860;52.018;8.536;2023-11-22T15:39:59;3.90;1.00
11609;DHT22;5860;52.018;8.536;2023-11-22T15:42:32;3.90;1.00
11609;DHT22;5860;52.018;8.536;2023-11-22T15:45:03;3.90;1.00
11609;DHT22;5860;52.018;8.536;2023-11-22T15:47:30;3.80;1.00
11609;DHT22;5860;52.018;8.536;2023-11-22T15:49:57;3.80;1.00
11609;DHT22;5860;52.018;8.536;2023-11-22T15:52:25;3.80;1.00
11609;DHT22;5860;52.018;8.536;2023-11-22T15:54:53;3.90;1.00
11609;DHT22;5860;52.018;8.536;2023-11-22T15:57:21;4.10;1.00
11609;DHT22;5860;52.018;8.536;2023-11-22T15:59:48;4.10;1.00
11609;DHT22;5860;52.018;8.536;2023-11-22T16:02:16;4.00;1.00
11609;DHT22;5860;52.018;8.536;2023-11-22T16:04:44;4.10;1.00
11609;DHT22;5860;52.018;8.536;2023-11-22T16:07:11;4.20;1.00
11609;DHT22;5860;52.018;8.536;2023-11-22T16:09:38;4.10;1.00
11609;DHT22;5860;52.018;8.536;2023-11-22T16:12:10;4.00;1.00
11609;DHT22;5860;52.018;8.536;2023-11-22T16:14:37;4.00;1.00
11609;DHT22;5860;52.018;8.536;2023-11-22T16:17:05;3.80;1.00
11609;DHT22;5860;52.018;8.536;2023-11-22T16:19:32;3.80;1.00
11609;DHT22;5860;52.018;8.536;2023-11-22T16:21:59;3.80;33.40
11609;DHT22;5860;52.018;8.536;2023-11-22T16:24:26;3.80;71.70
11609;DHT22;5860;52.018;8.536;2023-11-22T16:26:54;3.90;99.90